createdAt,value
2017-06-02T00:01:07.841Z,23.68
2017-06-02T00:02:18.108Z,23.68
2017-06-02T00:03:28.369Z,23.72
2017-06-02T00:04:38.322Z,23.61
2017-06-02T00:05:48.270Z,23.68
2017-06-02T00:06:58.537Z,23.7
2017-06-02T00:08:08.490Z,23.6
2017-06-02T00:09:18.756Z,23.68
2017-06-02T00:10:28.414Z,23.69
2017-06-02T00:11:38.373Z,23.58
2017-06-02T00:12:47.383Z,23.66
2017-06-02T00:13:57.690Z,23.65
2017-06-02T00:15:07.332Z,23.58
2017-06-02T00:16:17.283Z,23.6
2017-06-02T00:17:27.238Z,23.6
2017-06-02T00:18:37.196Z,23.58
2017-06-02T00:19:47.457Z,23.58
2017-06-02T00:20:57.724Z,23.66
2017-06-02T00:22:07.673Z,23.65
2017-06-02T00:23:16.994Z,23.58
2017-06-02T00:24:26.317Z,23.61
2017-06-02T00:25:36.583Z,23.61
2017-06-02T00:26:46.537Z,23.61
2017-06-02T00:27:56.813Z,23.57
2017-06-02T00:29:06.769Z,23.66
2017-06-02T00:30:17.032Z,23.63
2017-06-02T00:31:27.301Z,23.61
2017-06-02T00:32:36.935Z,23.63
2017-06-02T00:33:46.880Z,23.68
2017-06-02T00:34:56.521Z,23.61
2017-06-02T00:36:06.800Z,23.61
2017-06-02T00:37:16.129Z,23.66
2017-06-02T00:38:26.078Z,23.65
2017-06-02T00:39:36.035Z,23.6
2017-06-02T00:40:46.296Z,23.66
2017-06-02T00:41:56.244Z,23.61
2017-06-02T00:43:06.198Z,23.6
2017-06-02T00:44:15.517Z,23.63
2017-06-02T00:45:25.468Z,23.66
2017-06-02T00:46:35.735Z,23.55
2017-06-02T00:47:45.374Z,23.63
2017-06-02T00:48:55.323Z,23.63
2017-06-02T00:50:05.587Z,23.63
2017-06-02T00:51:15.541Z,23.63
2017-06-02T00:52:25.490Z,23.57
2017-06-02T00:53:35.753Z,23.57
2017-06-02T00:54:45.389Z,23.58
2017-06-02T00:55:55.024Z,23.6
2017-06-02T00:57:04.972Z,23.58
2017-06-02T00:58:14.612Z,23.61
2017-06-02T00:59:24.563Z,23.58
2017-06-02T01:00:34.831Z,23.54
2017-06-02T01:01:44.469Z,23.6
2017-06-02T01:02:54.751Z,23.55
2017-06-02T01:04:04.383Z,23.58
2017-06-02T01:05:14.010Z,23.57
2017-06-02T01:06:23.964Z,23.54
2017-06-02T01:07:33.919Z,23.55
2017-06-02T01:08:44.186Z,23.6
2017-06-02T01:09:54.136Z,23.57
2017-06-02T01:11:04.105Z,23.54
2017-06-02T01:12:14.059Z,23.54
2017-06-02T01:13:23.379Z,23.57
2017-06-02T01:14:33.638Z,23.6
2017-06-02T01:15:43.273Z,23.53
2017-06-02T01:16:52.909Z,23.53
2017-06-02T01:18:03.171Z,23.5
2017-06-02T01:19:13.130Z,23.54
2017-06-02T01:20:23.400Z,23.51
2017-06-02T01:21:32.733Z,23.51
2017-06-02T01:22:43.007Z,23.58
2017-06-02T01:23:52.958Z,23.55
2017-06-02T01:25:03.233Z,23.53
2017-06-02T01:26:12.883Z,23.51
2017-06-02T01:27:22.838Z,23.54
2017-06-02T01:28:32.159Z,23.57
2017-06-02T01:29:42.422Z,23.58
2017-06-02T01:30:52.365Z,23.48
2017-06-02T01:32:02.631Z,23.47
2017-06-02T01:33:12.906Z,23.54
2017-06-02T01:34:22.591Z,23.48
2017-06-02T01:35:32.858Z,23.51
2017-06-02T01:36:42.837Z,23.53
2017-06-02T01:37:52.790Z,23.55
2017-06-02T01:39:03.053Z,23.51
2017-06-02T01:40:12.680Z,23.58
2017-06-02T01:41:22.643Z,23.47
2017-06-02T01:42:32.284Z,23.53
2017-06-02T01:43:41.926Z,23.48
2017-06-02T01:44:52.198Z,23.53
2017-06-02T01:46:01.522Z,23.55
2017-06-02T01:47:11.495Z,23.54
2017-06-02T01:48:21.766Z,23.43
2017-06-02T01:49:31.712Z,23.53
2017-06-02T01:50:41.033Z,23.48
2017-06-02T01:51:50.979Z,23.51
2017-06-02T01:53:00.628Z,23.48
2017-06-02T01:54:10.591Z,23.48
2017-06-02T01:55:20.856Z,23.5
2017-06-02T01:56:31.131Z,23.5
2017-06-02T01:57:40.772Z,23.54
2017-06-02T01:58:51.030Z,23.43
2017-06-02T02:00:00.979Z,23.48
2017-06-02T02:01:10.929Z,23.53
2017-06-02T02:02:20.882Z,23.53
2017-06-02T02:03:30.513Z,23.53
2017-06-02T02:04:40.779Z,23.58
2017-06-02T02:05:50.736Z,23.55
2017-06-02T02:07:00.374Z,23.57
2017-06-02T02:08:10.332Z,23.57
2017-06-02T02:09:20.593Z,23.53
2017-06-02T02:10:30.851Z,23.57
2017-06-02T02:11:41.116Z,23.46
2017-06-02T02:12:51.065Z,23.47
2017-06-02T02:14:01.339Z,23.51
2017-06-02T02:15:11.617Z,23.55
2017-06-02T02:16:21.248Z,23.4
2017-06-02T02:17:31.520Z,23.43
2017-06-02T02:18:41.788Z,23.46
2017-06-02T02:19:51.737Z,23.47
2017-06-02T02:21:01.688Z,23.47
2017-06-02T02:22:11.633Z,23.43
2017-06-02T02:23:21.579Z,23.5
2017-06-02T02:24:30.894Z,23.43
2017-06-02T02:25:40.854Z,23.48
2017-06-02T02:26:50.805Z,23.39
2017-06-02T02:28:00.775Z,23.42
2017-06-02T02:29:11.038Z,23.51
2017-06-02T02:30:20.996Z,23.43
2017-06-02T02:31:30.632Z,23.47
2017-06-02T02:32:40.268Z,23.46
2017-06-02T02:33:49.904Z,23.47
2017-06-02T02:35:00.174Z,23.5
2017-06-02T02:36:09.814Z,23.47
2017-06-02T02:37:20.083Z,23.47
2017-06-02T02:38:29.718Z,23.43
2017-06-02T02:39:39.988Z,23.46
2017-06-02T02:40:49.940Z,23.35
2017-06-02T02:41:59.270Z,23.48
2017-06-02T02:43:09.224Z,23.42
2017-06-02T02:44:18.861Z,23.51
2017-06-02T02:45:29.126Z,23.46
2017-06-02T02:46:39.084Z,23.43
2017-06-02T02:47:49.350Z,23.47
2017-06-02T02:48:59.615Z,23.35
2017-06-02T02:50:09.872Z,23.43
2017-06-02T02:51:19.503Z,23.48
2017-06-02T02:52:29.138Z,23.48
2017-06-02T02:53:39.398Z,23.53
2017-06-02T02:54:49.414Z,23.4
2017-06-02T02:55:59.372Z,23.47
2017-06-02T02:57:09.638Z,23.51
2017-06-02T02:58:19.905Z,23.51
2017-06-02T02:59:29.859Z,23.51
2017-06-02T03:00:39.813Z,23.51
2017-06-02T03:01:50.075Z,23.55
2017-06-02T03:02:59.707Z,23.54
2017-06-02T03:04:09.343Z,23.48
2017-06-02T03:05:18.973Z,23.57
2017-06-02T03:06:29.237Z,23.55
2017-06-02T03:07:39.182Z,23.5
2017-06-02T03:08:49.446Z,23.43
2017-06-02T03:09:59.712Z,23.47
2017-06-02T03:11:09.353Z,23.47
2017-06-02T03:12:19.309Z,23.47
2017-06-02T03:13:28.315Z,23.43
2017-06-02T03:14:38.269Z,23.48
2017-06-02T03:15:48.213Z,23.53
2017-06-02T03:16:58.480Z,23.51
2017-06-02T03:18:08.134Z,23.48
2017-06-02T03:19:18.392Z,23.48
2017-06-02T03:20:28.025Z,23.47
2017-06-02T03:21:38.300Z,23.53
2017-06-02T03:22:48.255Z,23.53
2017-06-02T03:23:57.650Z,23.55
2017-06-02T03:25:07.605Z,23.55
2017-06-02T03:26:17.242Z,23.6
2017-06-02T03:27:27.502Z,23.51
2017-06-02T03:28:37.449Z,23.51
2017-06-02T03:29:47.400Z,23.5
2017-06-02T03:30:57.667Z,23.51
2017-06-02T03:32:07.294Z,23.46
2017-06-02T03:33:17.555Z,23.51
2017-06-02T03:34:27.831Z,23.55
2017-06-02T03:35:37.475Z,23.57
2017-06-02T03:36:47.429Z,23.54
2017-06-02T03:37:57.067Z,23.51
2017-06-02T03:39:06.396Z,23.48
2017-06-02T03:40:16.344Z,23.51
2017-06-02T03:41:25.974Z,23.53
2017-06-02T03:42:35.929Z,23.5
2017-06-02T03:43:46.203Z,23.57
2017-06-02T03:44:56.475Z,23.54
2017-06-02T03:46:06.743Z,23.51
2017-06-02T03:47:16.723Z,23.55
2017-06-02T03:48:26.364Z,23.55
2017-06-02T03:49:36.625Z,23.54
2017-06-02T03:50:46.889Z,23.53
2017-06-02T03:51:56.837Z,23.58
2017-06-02T03:53:07.159Z,23.47
2017-06-02T03:54:17.107Z,23.48
2017-06-02T03:55:27.056Z,23.51
2017-06-02T03:56:37.323Z,23.51
2017-06-02T03:57:47.589Z,23.53
2017-06-02T03:58:57.227Z,23.48
2017-06-02T04:00:07.181Z,23.51
2017-06-02T04:01:16.819Z,23.5
2017-06-02T04:02:26.779Z,23.48
2017-06-02T04:03:36.419Z,23.47
2017-06-02T04:04:46.684Z,23.43
2017-06-02T04:05:56.953Z,23.46
2017-06-02T04:07:06.910Z,23.42
2017-06-02T04:08:17.170Z,23.4
2017-06-02T04:09:27.122Z,23.46
2017-06-02T04:10:37.080Z,23.43
2017-06-02T04:11:47.040Z,23.39
2017-06-02T04:12:56.679Z,23.36
2017-06-02T04:14:06.638Z,23.42
2017-06-02T04:15:16.908Z,23.36
2017-06-02T04:16:26.534Z,23.36
2017-06-02T04:17:36.485Z,23.36
2017-06-02T04:18:46.750Z,23.33
2017-06-02T04:19:56.727Z,23.35
2017-06-02T04:21:06.678Z,23.38
2017-06-02T04:22:16.315Z,23.39
2017-06-02T04:23:25.952Z,23.38
2017-06-02T04:24:35.591Z,23.42
2017-06-02T04:25:45.557Z,23.36
2017-06-02T04:26:55.205Z,23.4
2017-06-02T04:28:04.849Z,23.33
2017-06-02T04:29:15.110Z,23.36
2017-06-02T04:30:24.743Z,23.4
2017-06-02T04:31:35.010Z,23.38
2017-06-02T04:32:44.643Z,23.39
2017-06-02T04:33:54.910Z,23.42
2017-06-02T04:35:05.184Z,23.38
2017-06-02T04:36:15.190Z,23.4
2017-06-02T04:37:25.144Z,23.4
2017-06-02T04:38:35.409Z,23.38
2017-06-02T04:39:45.357Z,23.32
2017-06-02T04:40:55.307Z,23.39
2017-06-02T04:42:05.571Z,23.38
2017-06-02T04:43:14.891Z,23.39
2017-06-02T04:44:24.526Z,23.36
2017-06-02T04:45:34.476Z,23.4
2017-06-02T04:46:44.740Z,23.39
2017-06-02T04:47:54.381Z,23.32
2017-06-02T04:49:04.019Z,23.43
2017-06-02T04:50:13.343Z,23.35
2017-06-02T04:51:23.609Z,23.36
2017-06-02T04:52:33.246Z,23.42
2017-06-02T04:53:43.199Z,23.31
2017-06-02T04:54:52.525Z,23.4
2017-06-02T04:56:02.168Z,23.38
2017-06-02T04:57:11.802Z,23.39
2017-06-02T04:58:21.123Z,23.43
2017-06-02T04:59:31.381Z,23.38
2017-06-02T05:00:41.017Z,23.39
2017-06-02T05:01:50.650Z,23.4
2017-06-02T05:03:00.610Z,23.38
2017-06-02T05:04:10.246Z,23.38
2017-06-02T05:05:19.879Z,23.42
2017-06-02T05:06:30.137Z,23.27
2017-06-02T05:07:39.458Z,23.4
2017-06-02T05:08:49.724Z,23.4
2017-06-02T05:09:59.684Z,23.42
2017-06-02T05:11:09.640Z,23.4
2017-06-02T05:12:19.593Z,23.35
2017-06-02T05:13:29.877Z,23.4
2017-06-02T05:14:39.512Z,23.36
2017-06-02T05:15:49.795Z,23.33
2017-06-02T05:16:59.746Z,23.4
2017-06-02T05:18:09.069Z,23.33
2017-06-02T05:19:18.392Z,23.36
2017-06-02T05:20:28.349Z,23.39
2017-06-02T05:21:38.301Z,23.36
2017-06-02T05:22:48.258Z,23.39
2017-06-02T05:23:58.223Z,23.38
2017-06-02T05:25:08.182Z,23.43
2017-06-02T05:26:18.134Z,23.47
2017-06-02T05:27:28.396Z,23.47
2017-06-02T05:28:38.362Z,23.48
2017-06-02T05:29:48.317Z,23.51
2017-06-02T05:30:57.954Z,23.5
2017-06-02T05:32:07.591Z,23.43
2017-06-02T05:33:17.859Z,23.53
2017-06-02T05:34:28.127Z,23.48
2017-06-02T05:35:38.079Z,23.5
2017-06-02T05:36:48.029Z,23.6
2017-06-02T05:37:57.982Z,23.55
2017-06-02T05:39:08.253Z,23.58
2017-06-02T05:40:17.886Z,23.54
2017-06-02T05:41:27.827Z,23.53
2017-06-02T05:42:37.805Z,23.57
2017-06-02T05:43:47.762Z,23.54
2017-06-02T05:44:57.707Z,23.42
2017-06-02T05:46:07.665Z,23.55
2017-06-02T05:47:17.334Z,23.53
2017-06-02T05:48:27.616Z,23.5
2017-06-02T05:49:37.943Z,23.53
2017-06-02T05:50:48.207Z,23.55
2017-06-02T05:51:57.849Z,23.55
2017-06-02T05:53:07.803Z,23.57
2017-06-02T05:54:18.069Z,23.54
2017-06-02T05:55:27.705Z,23.57
2017-06-02T05:56:37.655Z,23.6
2017-06-02T05:57:47.295Z,23.58
2017-06-02T05:58:57.566Z,23.61
2017-06-02T06:00:07.519Z,23.58
2017-06-02T06:01:17.165Z,23.6
2017-06-02T06:02:26.802Z,23.58
2017-06-02T06:03:36.761Z,23.6
2017-06-02T06:04:46.714Z,23.63
2017-06-02T06:05:56.669Z,23.61
2017-06-02T06:07:05.677Z,23.65
2017-06-02T06:08:15.619Z,23.57
2017-06-02T06:09:25.880Z,23.68
2017-06-02T06:10:35.516Z,23.69
2017-06-02T06:11:45.154Z,23.7
2017-06-02T06:12:55.105Z,23.75
2017-06-02T06:14:05.083Z,23.78
2017-06-02T06:15:15.029Z,23.73
2017-06-02T06:16:25.296Z,23.78
2017-06-02T06:17:35.255Z,23.76
2017-06-02T06:18:45.206Z,23.83
2017-06-02T06:19:55.159Z,23.72
2017-06-02T06:21:04.796Z,23.73
2017-06-02T06:22:14.755Z,23.79
2017-06-02T06:23:25.024Z,23.83
2017-06-02T06:24:34.974Z,23.79
2017-06-02T06:25:44.923Z,23.75
2017-06-02T06:26:54.268Z,23.8
2017-06-02T06:28:04.222Z,23.75
2017-06-02T06:29:14.180Z,23.79
2017-06-02T06:30:23.816Z,23.76
2017-06-02T06:31:33.453Z,23.79
2017-06-02T06:32:42.783Z,23.75
2017-06-02T06:33:52.104Z,23.8
2017-06-02T06:35:02.371Z,23.9
2017-06-02T06:36:12.642Z,23.84
2017-06-02T06:37:22.594Z,23.85
2017-06-02T06:38:31.917Z,23.84
2017-06-02T06:39:41.864Z,23.84
2017-06-02T06:40:51.818Z,23.83
2017-06-02T06:42:01.453Z,23.9
2017-06-02T06:43:11.717Z,23.94
2017-06-02T06:44:21.358Z,23.79
2017-06-02T06:45:31.622Z,23.94
2017-06-02T06:46:41.261Z,23.79
2017-06-02T06:47:51.211Z,23.94
2017-06-02T06:49:01.165Z,23.88
2017-06-02T06:50:11.117Z,23.8
2017-06-02T06:51:21.067Z,23.97
2017-06-02T06:52:30.384Z,23.93
2017-06-02T06:53:40.017Z,23.87
2017-06-02T06:54:49.973Z,23.9
2017-06-02T06:55:59.924Z,23.91
2017-06-02T06:57:09.877Z,23.87
2017-06-02T06:58:20.146Z,23.98
2017-06-02T06:59:29.785Z,23.94
2017-06-02T07:00:39.752Z,23.9
2017-06-02T07:01:50.025Z,23.95
2017-06-02T07:03:00.291Z,23.93
2017-06-02T07:04:10.242Z,23.93
2017-06-02T07:05:19.880Z,23.97
2017-06-02T07:06:29.517Z,23.98
2017-06-02T07:07:39.473Z,23.97
2017-06-02T07:08:49.427Z,23.97
2017-06-02T07:09:59.389Z,24
2017-06-02T07:11:09.337Z,23.97
2017-06-02T07:12:19.287Z,23.94
2017-06-02T07:13:29.235Z,23.97
2017-06-02T07:14:39.188Z,24
2017-06-02T07:15:48.835Z,23.95
2017-06-02T07:16:58.470Z,23.93
2017-06-02T07:18:07.795Z,23.94
2017-06-02T07:19:18.067Z,23.95
2017-06-02T07:20:28.337Z,24.02
2017-06-02T07:21:38.607Z,23.94
2017-06-02T07:22:48.872Z,23.94
2017-06-02T07:23:59.146Z,24.05
2017-06-02T07:25:09.096Z,23.94
2017-06-02T07:26:19.359Z,23.91
2017-06-02T07:27:29.630Z,23.95
2017-06-02T07:28:39.270Z,24.03
2017-06-02T07:29:48.907Z,23.97
2017-06-02T07:30:58.864Z,24
2017-06-02T07:32:08.814Z,23.98
2017-06-02T07:33:18.452Z,24.02
2017-06-02T07:34:28.406Z,24.1
2017-06-02T07:35:38.360Z,24.05
2017-06-02T07:36:48.311Z,24.03
2017-06-02T07:37:57.948Z,24.02
2017-06-02T07:39:07.583Z,24.12
2017-06-02T07:40:17.220Z,24.03
2017-06-02T07:41:26.860Z,24.03
2017-06-02T07:42:36.496Z,24.05
2017-06-02T07:43:46.759Z,24
2017-06-02T07:44:57.030Z,24
2017-06-02T07:46:06.986Z,24.08
2017-06-02T07:47:16.935Z,24.05
2017-06-02T07:48:26.888Z,24.03
2017-06-02T07:49:37.157Z,24.06
2017-06-02T07:50:46.790Z,24.09
2017-06-02T07:51:56.741Z,24.02
2017-06-02T07:53:06.384Z,24.08
2017-06-02T07:54:16.335Z,24.03
2017-06-02T07:55:26.284Z,24.06
2017-06-02T07:56:36.244Z,24.08
2017-06-02T07:57:45.876Z,24.06
2017-06-02T07:58:55.201Z,24.08
2017-06-02T08:00:05.165Z,24.03
2017-06-02T08:01:14.802Z,24.05
2017-06-02T08:02:24.750Z,24.03
2017-06-02T08:03:34.699Z,24.06
2017-06-02T08:04:44.653Z,24.05
2017-06-02T08:05:54.927Z,24.08
2017-06-02T08:07:04.563Z,24.03
2017-06-02T08:08:14.832Z,24.09
2017-06-02T08:09:25.100Z,24.08
2017-06-02T08:10:35.055Z,24.05
2017-06-02T08:11:45.325Z,24.03
2017-06-02T08:12:54.955Z,24.06
2017-06-02T08:14:05.233Z,24.08
2017-06-02T08:15:15.192Z,24.09
2017-06-02T08:16:25.454Z,24.12
2017-06-02T08:17:35.722Z,24.08
2017-06-02T08:18:45.359Z,24.05
2017-06-02T08:19:55.002Z,24.06
2017-06-02T08:21:05.290Z,24.09
2017-06-02T08:22:15.244Z,24.06
2017-06-02T08:23:25.511Z,24.08
2017-06-02T08:24:35.463Z,24.08
2017-06-02T08:25:45.738Z,24.06
2017-06-02T08:26:55.692Z,24.09
2017-06-02T08:28:05.662Z,24.05
2017-06-02T08:29:15.298Z,24.09
2017-06-02T08:30:25.613Z,24.1
2017-06-02T08:31:35.255Z,24.09
2017-06-02T08:32:44.889Z,24.1
2017-06-02T08:33:55.169Z,24.09
2017-06-02T08:35:05.137Z,24.1
2017-06-02T08:36:14.770Z,24.1
2017-06-02T08:37:24.419Z,24.06
2017-06-02T08:38:34.685Z,24.09
2017-06-02T08:39:44.322Z,24.12
2017-06-02T08:40:53.960Z,24.08
2017-06-02T08:42:04.232Z,24.12
2017-06-02T08:43:14.182Z,24.09
2017-06-02T08:44:23.822Z,24.09
2017-06-02T08:45:33.460Z,24.06
2017-06-02T08:46:43.733Z,24.16
2017-06-02T08:47:54.007Z,24.06
2017-06-02T08:49:04.277Z,24.05
2017-06-02T08:50:14.545Z,24.05
2017-06-02T08:51:24.503Z,24.09
2017-06-02T08:52:34.459Z,24.06
2017-06-02T08:53:44.407Z,24.06
2017-06-02T08:54:54.038Z,24.05
2017-06-02T08:56:04.305Z,24.09
2017-06-02T08:57:14.254Z,24.09
2017-06-02T08:58:23.889Z,24.09
2017-06-02T08:59:33.840Z,24.1
2017-06-02T09:00:43.798Z,24.05
2017-06-02T09:01:53.749Z,24.09
2017-06-02T09:03:03.706Z,24.08
2017-06-02T09:04:13.028Z,24.06
2017-06-02T09:05:23.297Z,24.09
2017-06-02T09:06:33.252Z,24.09
2017-06-02T09:07:43.522Z,24.05
2017-06-02T09:08:53.790Z,24.06
2017-06-02T09:10:03.743Z,24.08
2017-06-02T09:11:14.012Z,24.12
2017-06-02T09:12:23.960Z,24.08
2017-06-02T09:13:33.915Z,24.05
2017-06-02T09:14:43.618Z,24.06
2017-06-02T09:15:53.888Z,24.09
2017-06-02T09:17:03.842Z,24.03
2017-06-02T09:18:13.798Z,24.05
2017-06-02T09:19:23.752Z,24.09
2017-06-02T09:20:33.706Z,24.08
2017-06-02T09:21:43.967Z,24.03
2017-06-02T09:22:53.915Z,24.08
2017-06-02T09:24:04.185Z,24.03
2017-06-02T09:25:14.453Z,24.09
2017-06-02T09:26:24.085Z,24.08
2017-06-02T09:27:33.730Z,24.02
2017-06-02T09:28:43.054Z,24.1
2017-06-02T09:29:52.692Z,24.1
2017-06-02T09:31:02.964Z,24.05
2017-06-02T09:32:12.939Z,24.08
2017-06-02T09:33:23.234Z,24.03
2017-06-02T09:34:33.186Z,24.05
2017-06-02T09:35:42.821Z,24.05
2017-06-02T09:36:52.775Z,24.03
2017-06-02T09:38:02.411Z,24.05
2017-06-02T09:39:12.039Z,24.05
2017-06-02T09:40:21.682Z,24.08
2017-06-02T09:41:31.953Z,24.08
2017-06-02T09:42:41.904Z,24.05
2017-06-02T09:43:51.889Z,24.05
2017-06-02T09:45:01.228Z,24.05
2017-06-02T09:46:11.187Z,24.02
2017-06-02T09:47:21.455Z,24.08
2017-06-02T09:48:31.754Z,24.06
2017-06-02T09:49:41.724Z,24.08
2017-06-02T09:50:52.002Z,24.03
2017-06-02T09:52:02.271Z,24.03
2017-06-02T09:53:12.260Z,24.09
2017-06-02T09:54:21.578Z,24.08
2017-06-02T09:55:31.848Z,24.02
2017-06-02T09:56:41.804Z,24.03
2017-06-02T09:57:52.078Z,24.02
2017-06-02T09:59:01.717Z,24.05
2017-06-02T10:00:11.987Z,23.98
2017-06-02T10:01:21.943Z,24.06
2017-06-02T10:02:32.211Z,24.03
2017-06-02T10:03:42.165Z,24.08
2017-06-02T10:04:52.426Z,24.02
2017-06-02T10:06:02.690Z,23.98
2017-06-02T10:07:12.648Z,24.02
2017-06-02T10:08:22.617Z,24.06
2017-06-02T10:09:32.251Z,24.05
2017-06-02T10:10:42.212Z,24.02
2017-06-02T10:11:52.476Z,24.03
2017-06-02T10:13:02.435Z,24.03
2017-06-02T10:14:12.700Z,24.03
2017-06-02T10:15:22.652Z,23.98
2017-06-02T10:16:32.920Z,23.98
2017-06-02T10:17:43.192Z,24.02
2017-06-02T10:18:53.147Z,24.03
2017-06-02T10:20:03.416Z,23.97
2017-06-02T10:21:13.074Z,24
2017-06-02T10:22:23.028Z,24
2017-06-02T10:23:33.043Z,24.05
2017-06-02T10:24:43.001Z,24.02
2017-06-02T10:25:52.642Z,24.02
2017-06-02T10:27:01.656Z,24.06
2017-06-02T10:28:11.295Z,23.97
2017-06-02T10:29:21.647Z,24.05
2017-06-02T10:30:31.908Z,24.06
2017-06-02T10:31:41.864Z,24.09
2017-06-02T10:32:51.825Z,24.05
2017-06-02T10:34:01.775Z,23.98
2017-06-02T10:35:11.414Z,24.02
2017-06-02T10:36:21.682Z,24
2017-06-02T10:37:31.642Z,24.08
2017-06-02T10:38:41.903Z,24.03
2017-06-02T10:39:52.165Z,24.03
2017-06-02T10:41:02.120Z,23.98
2017-06-02T10:42:12.391Z,24.05
2017-06-02T10:43:22.650Z,24.02
2017-06-02T10:44:32.603Z,23.95
2017-06-02T10:45:42.553Z,24.09
2017-06-02T10:46:52.507Z,23.97
2017-06-02T10:48:02.483Z,23.98
2017-06-02T10:49:12.122Z,23.98
2017-06-02T10:50:22.385Z,24.05
2017-06-02T10:51:32.341Z,23.94
2017-06-02T10:52:42.296Z,24.03
2017-06-02T10:53:52.250Z,23.98
2017-06-02T10:55:02.195Z,24.06
2017-06-02T10:56:12.471Z,24
2017-06-02T10:57:21.789Z,24.06
2017-06-02T10:58:31.737Z,24.06
2017-06-02T10:59:42.013Z,23.95
2017-06-02T11:00:51.340Z,24.05
2017-06-02T11:02:01.603Z,24.06
2017-06-02T11:03:11.555Z,23.97
2017-06-02T11:04:21.199Z,24.02
2017-06-02T11:05:31.468Z,24.09
2017-06-02T11:06:41.104Z,24.05
2017-06-02T11:07:51.062Z,24.06
2017-06-02T11:09:01.340Z,24.05
2017-06-02T11:10:10.662Z,24
2017-06-02T11:11:20.613Z,24
2017-06-02T11:12:30.574Z,23.95
2017-06-02T11:13:40.867Z,23.94
2017-06-02T11:14:50.815Z,23.91
2017-06-02T11:16:00.140Z,24.06
2017-06-02T11:17:10.411Z,24.06
2017-06-02T11:18:20.364Z,23.95
2017-06-02T11:19:30.629Z,23.94
2017-06-02T11:20:40.581Z,24
2017-06-02T11:21:50.219Z,23.91
2017-06-02T11:23:00.489Z,24.05
2017-06-02T11:24:09.820Z,23.93
2017-06-02T11:25:20.087Z,23.91
2017-06-02T11:26:30.348Z,23.95
2017-06-02T11:27:40.617Z,23.97
2017-06-02T11:28:50.260Z,24.05
2017-06-02T11:30:00.532Z,24.08
2017-06-02T11:31:10.170Z,24
2017-06-02T11:32:20.432Z,23.9
2017-06-02T11:33:30.387Z,23.94
2017-06-02T11:34:40.031Z,23.76
2017-06-02T11:35:49.985Z,23.76
2017-06-02T11:37:00.255Z,23.78
2017-06-02T11:38:10.205Z,23.7
2017-06-02T11:39:20.476Z,23.84
2017-06-02T11:40:30.110Z,23.75
2017-06-02T11:41:39.431Z,23.83
2017-06-02T11:42:49.423Z,23.72
2017-06-02T11:43:59.374Z,23.78
2017-06-02T11:45:09.328Z,23.76
2017-06-02T11:46:19.281Z,23.72
2017-06-02T11:47:28.951Z,23.61
2017-06-02T11:48:39.222Z,23.63
2017-06-02T11:49:49.170Z,23.7
2017-06-02T11:50:59.124Z,23.72
2017-06-02T11:52:09.080Z,23.75
2017-06-02T11:53:18.718Z,23.84
2017-06-02T11:54:28.355Z,23.79
2017-06-02T11:55:37.995Z,23.79
2017-06-02T11:56:47.946Z,23.73
2017-06-02T11:57:57.893Z,23.84
2017-06-02T11:59:07.842Z,23.78
2017-06-02T12:00:17.482Z,23.75
2017-06-02T12:01:27.435Z,23.76
2017-06-02T12:02:37.699Z,23.78
2017-06-02T12:03:47.651Z,23.79
2017-06-02T12:04:57.609Z,23.76
2017-06-02T12:06:07.877Z,23.8
2017-06-02T12:07:18.144Z,23.84
2017-06-02T12:08:28.103Z,23.79
2017-06-02T12:09:38.052Z,23.68
2017-06-02T12:10:48.001Z,23.75
2017-06-02T12:11:57.638Z,23.69
2017-06-02T12:13:07.599Z,23.7
2017-06-02T12:14:17.236Z,23.75
2017-06-02T12:15:26.870Z,23.76
2017-06-02T12:16:37.140Z,23.75
2017-06-02T12:17:47.411Z,23.83
2017-06-02T12:18:57.664Z,23.8
2017-06-02T12:20:07.614Z,23.76
2017-06-02T12:21:17.887Z,23.85
2017-06-02T12:22:27.214Z,23.79
2017-06-02T12:23:36.219Z,23.73
2017-06-02T12:24:46.493Z,23.79
2017-06-02T12:25:56.441Z,23.83
2017-06-02T12:27:06.711Z,23.78
2017-06-02T12:28:16.991Z,23.83
2017-06-02T12:29:27.261Z,23.8
2017-06-02T12:30:37.211Z,23.84
2017-06-02T12:31:46.534Z,23.79
2017-06-02T12:32:56.484Z,23.76
2017-06-02T12:34:06.460Z,23.79
2017-06-02T12:35:16.420Z,23.78
2017-06-02T12:36:26.055Z,23.85
2017-06-02T12:37:36.319Z,23.8
2017-06-02T12:38:45.961Z,23.85
2017-06-02T12:39:55.603Z,23.85
2017-06-02T12:41:05.873Z,23.84
2017-06-02T12:42:15.828Z,23.8
2017-06-02T12:43:25.788Z,23.87
2017-06-02T12:44:35.425Z,23.94
2017-06-02T12:45:45.379Z,23.93
2017-06-02T12:46:55.330Z,23.94
2017-06-02T12:48:05.595Z,23.94
2017-06-02T12:49:15.229Z,23.97
2017-06-02T12:50:25.495Z,23.88
2017-06-02T12:51:35.444Z,23.9
2017-06-02T12:52:45.713Z,23.93
2017-06-02T12:53:55.986Z,23.83
2017-06-02T12:55:05.615Z,23.83
2017-06-02T12:56:15.900Z,23.95
2017-06-02T12:57:25.849Z,23.94
2017-06-02T12:58:36.112Z,23.91
2017-06-02T12:59:46.058Z,23.79
2017-06-02T13:00:56.016Z,23.91
2017-06-02T13:02:05.967Z,23.94
2017-06-02T13:03:15.605Z,23.8
2017-06-02T13:04:25.873Z,23.79
2017-06-02T13:05:36.134Z,23.84
2017-06-02T13:06:46.094Z,23.83
2017-06-02T13:07:56.055Z,23.87
2017-06-02T13:09:06.316Z,23.8
2017-06-02T13:10:15.956Z,23.75
2017-06-02T13:11:25.911Z,23.76
2017-06-02T13:12:36.168Z,23.83
2017-06-02T13:13:45.802Z,23.8
2017-06-02T13:14:56.067Z,23.85
2017-06-02T13:16:06.015Z,23.78
2017-06-02T13:17:15.967Z,23.83
2017-06-02T13:18:25.923Z,23.76
2017-06-02T13:19:35.872Z,23.75
2017-06-02T13:20:45.815Z,23.8
2017-06-02T13:21:56.083Z,23.8
2017-06-02T13:23:06.345Z,23.73
2017-06-02T13:24:16.600Z,23.8
2017-06-02T13:25:26.551Z,23.8
2017-06-02T13:26:36.503Z,23.85
2017-06-02T13:27:46.764Z,23.8
2017-06-02T13:28:56.396Z,23.8
2017-06-02T13:30:06.661Z,23.79
2017-06-02T13:31:15.997Z,23.78
2017-06-02T13:32:26.268Z,23.9
2017-06-02T13:33:36.220Z,23.87
2017-06-02T13:34:45.536Z,23.9
2017-06-02T13:35:55.166Z,23.83
2017-06-02T13:37:05.429Z,23.91
2017-06-02T13:38:15.375Z,23.79
2017-06-02T13:39:24.693Z,23.78
2017-06-02T13:40:34.326Z,23.88
2017-06-02T13:41:43.970Z,23.79
2017-06-02T13:42:54.239Z,23.88
2017-06-02T13:44:03.553Z,23.8
2017-06-02T13:45:13.521Z,23.83
2017-06-02T13:46:23.790Z,23.91
2017-06-02T13:47:33.739Z,23.8
2017-06-02T13:48:44.006Z,23.93
2017-06-02T13:49:53.949Z,23.85
2017-06-02T13:51:04.208Z,23.79
2017-06-02T13:52:14.155Z,23.76
2017-06-02T13:53:24.422Z,23.9
2017-06-02T13:54:34.366Z,23.79
2017-06-02T13:55:44.625Z,23.83
2017-06-02T13:56:54.260Z,23.76
2017-06-02T13:58:03.919Z,23.78
2017-06-02T13:59:14.179Z,23.8
2017-06-02T14:00:24.135Z,23.76
2017-06-02T14:01:34.090Z,23.76
2017-06-02T14:02:44.050Z,23.79
2017-06-02T14:03:54.029Z,23.79
2017-06-02T14:05:03.977Z,23.76
2017-06-02T14:06:13.924Z,23.78
2017-06-02T14:07:24.191Z,23.83
2017-06-02T14:08:34.144Z,23.78
2017-06-02T14:09:44.423Z,23.9
2017-06-02T14:10:54.380Z,23.75
2017-06-02T14:12:04.015Z,23.84
2017-06-02T14:13:13.967Z,23.78
2017-06-02T14:14:23.290Z,23.78
2017-06-02T14:15:33.558Z,23.73
2017-06-02T14:16:43.189Z,23.78
2017-06-02T14:17:52.825Z,23.78
2017-06-02T14:19:03.086Z,23.83
2017-06-02T14:20:12.723Z,23.78
2017-06-02T14:21:22.676Z,23.76
2017-06-02T14:22:32.942Z,23.83
2017-06-02T14:23:42.888Z,23.78
2017-06-02T14:24:53.160Z,23.79
2017-06-02T14:26:03.425Z,23.83
2017-06-02T14:27:13.688Z,23.79
2017-06-02T14:28:23.641Z,23.83
2017-06-02T14:29:33.899Z,23.83
2017-06-02T14:30:43.843Z,23.78
2017-06-02T14:31:53.797Z,23.78
2017-06-02T14:33:03.430Z,23.84
2017-06-02T14:34:13.392Z,23.8
2017-06-02T14:35:23.333Z,23.78
2017-06-02T14:36:33.291Z,23.83
2017-06-02T14:37:43.247Z,23.8
2017-06-02T14:38:53.512Z,23.85
2017-06-02T14:40:03.147Z,23.8
2017-06-02T14:41:13.419Z,23.8
2017-06-02T14:42:23.679Z,23.85
2017-06-02T14:43:33.321Z,23.8
2017-06-02T14:44:43.269Z,23.85
2017-06-02T14:45:52.900Z,23.85
2017-06-02T14:47:03.169Z,23.83
2017-06-02T14:48:13.454Z,23.78
2017-06-02T14:49:23.729Z,23.76
2017-06-02T14:50:33.996Z,23.84
2017-06-02T14:51:44.259Z,23.8
2017-06-02T14:52:54.526Z,23.84
2017-06-02T14:54:04.807Z,23.84
2017-06-02T14:55:14.445Z,23.87
2017-06-02T14:56:24.078Z,23.85
2017-06-02T14:57:34.024Z,23.79
2017-06-02T14:58:44.287Z,23.78
2017-06-02T14:59:54.244Z,23.85
2017-06-02T15:01:04.510Z,23.88
2017-06-02T15:02:14.459Z,23.84
2017-06-02T15:03:24.102Z,23.85
2017-06-02T15:04:34.369Z,23.8
2017-06-02T15:05:44.633Z,23.76